Time;durP1;ratioP1;P1;durP2;ratioP2;P2;SDS_P1;SDS_P2;PMS_P1;PMS_P2;Temp;Humidity;BMP_temperature;BMP_pressure;BME280_temperature;BME280_humidity;BME280_pressure;Samples;Min_cycle;Max_cycle;Signal;HPM_P1;HPM_P2
2023/09/11 00:00:17;;;;;;;6.82;4.50;;;22.70;92.40;;;;;;5011978;28;20080;-78
2023/09/11 00:02:43;;;;;;;5.57;4.25;;;22.70;92.40;;;;;;5013542;28;20544;-78
2023/09/11 00:05:09;;;;;;;5.30;4.03;;;22.70;92.40;;;;;;5012126;28;20029;-78
2023/09/11 00:07:34;;;;;;;6.22;4.32;;;22.70;92.40;;;;;;5013411;28;20104;-78
2023/09/11 00:10:00;;;;;;;5.80;4.18;;;22.70;92.50;;;;;;5013156;28;20108;-78
2023/09/11 00:12:25;;;;;;;5.85;4.22;;;22.70;92.50;;;;;;5012066;28;20080;-78
2023/09/11 00:14:51;;;;;;;5.72;4.18;;;22.70;92.50;;;;;;5011863;28;20018;-78
2023/09/11 00:17:16;;;;;;;5.63;4.18;;;22.70;92.50;;;;;;5011830;28;20026;-79
2023/09/11 00:19:42;;;;;;;5.78;4.30;;;22.70;92.50;;;;;;5012290;28;20037;-78
2023/09/11 00:22:07;;;;;;;6.38;4.47;;;22.70;92.50;;;;;;5013009;28;20156;-78
2023/09/11 00:24:33;;;;;;;6.22;4.18;;;22.70;92.50;;;;;;5011433;28;20436;-78
2023/09/11 00:26:58;;;;;;;5.25;4.00;;;22.80;92.40;;;;;;5012752;28;20423;-78
2023/09/11 00:29:24;;;;;;;6.18;4.45;;;22.80;92.40;;;;;;5011454;28;20022;-78
2023/09/11 00:31:49;;;;;;;5.95;4.20;;;22.80;92.30;;;;;;5012684;28;20022;-78
2023/09/11 00:34:15;;;;;;;5.60;4.10;;;22.80;92.30;;;;;;5011239;28;20022;-78
2023/09/11 00:36:40;;;;;;;5.80;4.25;;;22.70;92.30;;;;;;5012678;28;20026;-78
2023/09/11 00:39:06;;;;;;;5.82;4.18;;;22.70;92.40;;;;;;5011280;28;20025;-78
2023/09/11 00:41:31;;;;;;;5.95;4.32;;;22.70;92.40;;;;;;5012699;28;20026;-78
2023/09/11 00:43:57;;;;;;;6.18;4.40;;;22.70;92.40;;;;;;5012434;28;20041;-78
2023/09/11 00:46:22;;;;;;;5.78;4.35;;;22.70;92.40;;;;;;5012369;28;20410;-78
2023/09/11 00:48:53;;;;;;;6.28;4.28;;;22.70;92.50;;;;;;5010813;28;20022;-77
2023/09/11 00:51:18;;;;;;;6.00;4.50;;;22.70;92.40;;;;;;5010227;28;20038;-78
2023/09/11 00:53:44;;;;;;;5.20;3.85;;;22.70;92.50;;;;;;5012370;28;20037;-78
2023/09/11 00:56:10;;;;;;;5.40;4.18;;;22.70;92.50;;;;;;5011018;28;20475;-78
2023/09/11 00:58:36;;;;;;;6.05;4.38;;;22.70;92.50;;;;;;5010883;28;20053;-78
2023/09/11 01:01:02;;;;;;;5.63;4.22;;;22.70;92.50;;;;;;5012251;28;20034;-78
2023/09/11 01:03:27;;;;;;;5.82;4.30;;;22.70;92.50;;;;;;5012408;28;20018;-78
2023/09/11 01:05:55;;;;;;;6.88;4.60;;;22.70;92.50;;;;;;5010789;28;20026;-78
2023/09/11 01:08:21;;;;;;;5.85;4.10;;;22.70;92.50;;;;;;5010729;28;20022;-78
2023/09/11 01:10:46;;;;;;;5.68;4.05;;;22.70;92.60;;;;;;5011974;28;20029;-78
2023/09/11 01:13:12;;;;;;;6.47;4.60;;;22.70;92.50;;;;;;5010970;28;20063;-78
2023/09/11 01:15:52;;;;;;;6.00;4.28;;;22.70;92.50;;;;;;5011925;28;20083;-78
2023/09/11 01:18:40;;;;;;;6.20;4.07;;;22.70;92.50;;;;;;5012015;28;20022;-78
2023/09/11 01:21:08;;;;;;;5.80;4.40;;;22.80;92.40;;;;;;5010836;28;20494;-78
2023/09/11 01:23:36;;;;;;;5.75;4.10;;;22.80;92.40;;;;;;5012157;28;20076;-78
2023/09/11 01:26:24;;;;;;;5.50;4.20;;;22.70;92.40;;;;;;5012063;28;20029;-78
2023/09/11 01:29:24;;;;;;;5.88;3.95;;;22.70;92.40;;;;;;5011974;28;20101;-78
2023/09/11 01:31:51;;;;;;;6.70;4.60;;;22.70;92.40;;;;;;5012012;28;20021;-78
2023/09/11 01:34:16;;;;;;;6.47;4.80;;;22.70;92.40;;;;;;5011700;28;20501;-78
2023/09/11 01:36:42;;;;;;;5.57;4.30;;;22.70;92.40;;;;;;5011970;28;20022;-78
2023/09/11 01:39:08;;;;;;;6.57;4.53;;;22.70;92.40;;;;;;5012001;28;20033;-78
2023/09/11 01:41:35;;;;;;;6.38;4.53;;;22.70;92.50;;;;;;5010762;28;20049;-78
2023/09/11 01:44:13;;;;;;;6.18;4.53;;;22.70;92.50;;;;;;5011967;28;20473;-78
2023/09/11 01:46:39;;;;;;;7.32;4.50;;;22.70;92.50;;;;;;5011867;28;20045;-78
2023/09/11 01:49:07;;;;;;;6.32;4.43;;;22.60;92.50;;;;;;5011925;28;20548;-78
2023/09/11 01:51:36;;;;;;;5.97;4.30;;;22.60;92.50;;;;;;5011969;28;20026;-78
2023/09/11 01:54:02;;;;;;;5.95;4.18;;;22.60;92.50;;;;;;5011728;28;20398;-78
2023/09/11 01:56:28;;;;;;;5.70;4.03;;;22.60;92.50;;;;;;5010610;28;20028;-78
2023/09/11 01:58:56;;;;;;;5.97;4.28;;;22.70;92.50;;;;;;5011516;28;20034;-78
2023/09/11 02:01:22;;;;;;;6.20;4.10;;;22.60;92.60;;;;;;5011957;28;20072;-78
2023/09/11 02:03:47;;;;;;;5.43;3.83;;;22.70;92.60;;;;;;5014830;28;20422;-78
2023/09/11 02:06:13;;;;;;;5.57;3.97;;;22.60;92.50;;;;;;5015406;28;20109;-78
2023/09/11 02:08:38;;;;;;;5.43;4.03;;;22.70;92.50;;;;;;5013653;28;20401;-78
2023/09/11 02:11:04;;;;;;;5.72;3.90;;;22.70;92.50;;;;;;5014197;28;20026;-78
2023/09/11 02:13:29;;;;;;;6.40;4.53;;;22.70;92.40;;;;;;5015268;28;20022;-78
2023/09/11 02:15:55;;;;;;;6.07;4.22;;;22.70;92.40;;;;;;5014018;28;20022;-78
2023/09/11 02:18:20;;;;;;;6.38;3.92;;;22.70;92.40;;;;;;5013709;28;20482;-78
2023/09/11 02:20:47;;;;;;;6.00;4.40;;;22.70;92.40;;;;;;5014906;28;20108;-78
2023/09/11 02:23:14;;;;;;;5.85;4.20;;;22.70;92.40;;;;;;5013795;28;20021;-78
2023/09/11 02:25:41;;;;;;;5.95;4.25;;;22.70;92.50;;;;;;5014832;28;20072;-78
2023/09/11 02:28:07;;;;;;;5.90;4.30;;;22.70;92.50;;;;;;5014803;28;20045;-78
2023/09/11 02:30:32;;;;;;;6.13;4.32;;;22.70;92.50;;;;;;5015044;28;20030;-78
2023/09/11 02:32:57;;;;;;;5.80;4.22;;;22.60;92.50;;;;;;5014784;28;20120;-78
2023/09/11 02:35:23;;;;;;;6.97;4.53;;;22.70;92.50;;;;;;5014665;28;20044;-78
2023/09/11 02:37:49;;;;;;;5.80;4.00;;;22.60;92.50;;;;;;5014682;28;20161;-78
2023/09/11 02:40:14;;;;;;;5.88;4.15;;;22.60;92.50;;;;;;5014756;28;20018;-78
2023/09/11 02:42:40;;;;;;;5.50;4.10;;;22.60;92.50;;;;;;5015055;28;20025;-78
2023/09/11 02:45:06;;;;;;;5.93;4.35;;;22.60;92.50;;;;;;5013633;28;20029;-77
2023/09/11 02:47:31;;;;;;;5.80;4.13;;;22.70;92.60;;;;;;5014859;28;20033;-78
2023/09/11 02:49:57;;;;;;;5.60;4.10;;;22.60;92.60;;;;;;5013178;28;20068;-78
2023/09/11 02:52:22;;;;;;;5.63;4.15;;;22.60;92.60;;;;;;5013469;28;20053;-78
2023/09/11 02:54:48;;;;;;;5.15;3.95;;;22.60;92.60;;;;;;5014333;28;20100;-78
2023/09/11 02:57:13;;;;;;;5.63;4.30;;;22.60;92.60;;;;;;5010872;28;20026;-78
2023/09/11 02:59:39;;;;;;;6.00;4.35;;;22.70;92.60;;;;;;5012498;28;20028;-78
2023/09/11 03:02:05;;;;;;;6.50;4.38;;;22.70;92.60;;;;;;5004732;28;20076;-77
2023/09/11 03:04:30;;;;;;;5.82;4.20;;;22.70;92.50;;;;;;5013350;28;20033;-78
2023/09/11 03:06:56;;;;;;;5.75;4.10;;;22.70;92.50;;;;;;5013229;28;20029;-78
2023/09/11 03:09:21;;;;;;;5.75;4.05;;;22.70;92.50;;;;;;5012907;28;20022;-78
2023/09/11 03:11:47;;;;;;;5.80;4.60;;;22.70;92.40;;;;;;5014207;28;20482;-78
2023/09/11 03:14:13;;;;;;;5.90;4.38;;;22.70;92.40;;;;;;5011960;28;20026;-78
2023/09/11 03:16:44;;;;;;;5.78;4.13;;;22.70;92.50;;;;;;5013273;28;20045;-78
2023/09/11 03:19:11;;;;;;;6.60;4.50;;;22.70;92.50;;;;;;5013895;28;20109;-78
2023/09/11 03:21:37;;;;;;;5.70;4.28;;;22.60;92.50;;;;;;5014120;28;20065;-78
2023/09/11 03:24:02;;;;;;;6.50;4.43;;;22.60;92.50;;;;;;5014219;28;20061;-78
2023/09/11 03:26:28;;;;;;;5.80;4.50;;;22.60;92.50;;;;;;5014301;28;20076;-79
2023/09/11 03:28:53;;;;;;;5.88;4.28;;;22.60;92.50;;;;;;5013290;28;20395;-78
2023/09/11 03:31:19;;;;;;;6.10;4.57;;;22.60;92.60;;;;;;5013733;28;20021;-78
2023/09/11 03:33:45;;;;;;;6.07;3.97;;;22.60;92.60;;;;;;5012132;28;20037;-78
2023/09/11 03:36:20;;;;;;;5.63;4.35;;;22.60;92.60;;;;;;5013274;28;20034;-78
2023/09/11 03:38:45;;;;;;;5.82;4.30;;;22.60;92.60;;;;;;5012154;28;20022;-78
2023/09/11 03:41:11;;;;;;;6.43;4.68;;;22.60;92.60;;;;;;5013910;28;20048;-78
2023/09/11 03:43:36;;;;;;;6.18;4.25;;;22.60;92.60;;;;;;5012254;28;20395;-78
2023/09/11 03:46:02;;;;;;;5.90;4.20;;;22.60;92.90;;;;;;5013380;28;20022;-78
2023/09/11 03:48:28;;;;;;;5.75;4.00;;;22.60;92.60;;;;;;5013071;28;20022;-78
2023/09/11 03:50:53;;;;;;;5.82;4.40;;;22.60;92.60;;;;;;5011840;28;20052;-78
2023/09/11 03:53:19;;;;;;;6.10;4.30;;;22.60;92.60;;;;;;5011961;28;20072;-78
2023/09/11 03:55:44;;;;;;;5.53;4.18;;;22.70;92.60;;;;;;5012883;28;20030;-78
2023/09/11 03:58:13;;;;;;;6.10;4.25;;;22.70;92.50;;;;;;5012879;28;20026;-78
2023/09/11 04:00:39;;;;;;;6.00;4.10;;;22.70;92.50;;;;;;5011871;28;20498;-78
2023/09/11 04:03:04;;;;;;;5.50;3.90;;;22.70;92.50;;;;;;5011703;28;20018;-78
2023/09/11 04:05:30;;;;;;;5.90;4.07;;;22.70;92.50;;;;;;5011656;28;20084;-78
2023/09/11 04:07:55;;;;;;;5.80;4.25;;;22.70;92.50;;;;;;5012777;28;20068;-78
2023/09/11 04:10:21;;;;;;;6.38;3.95;;;22.70;92.50;;;;;;5012648;28;20109;-78
2023/09/11 04:12:47;;;;;;;6.03;4.50;;;22.70;92.50;;;;;;5012680;28;20025;-78
2023/09/11 04:15:13;;;;;;;5.80;4.20;;;22.60;92.50;;;;;;5012748;28;20029;-78
2023/09/11 04:17:38;;;;;;;5.82;4.32;;;22.60;92.60;;;;;;5012782;28;20441;-78
2023/09/11 04:20:05;;;;;;;6.28;4.50;;;22.60;92.60;;;;;;5011933;28;20030;-78
2023/09/11 04:22:31;;;;;;;5.82;4.53;;;22.60;92.60;;;;;;5012706;28;20540;-78
2023/09/11 04:24:56;;;;;;;6.43;4.40;;;22.60;92.60;;;;;;5012391;28;20026;-78
2023/09/11 04:27:22;;;;;;;5.85;4.45;;;22.60;92.60;;;;;;5012647;28;20038;-78
2023/09/11 04:29:47;;;;;;;6.00;4.05;;;22.60;92.60;;;;;;5011075;28;20107;-78
2023/09/11 04:32:13;;;;;;;6.15;4.63;;;22.60;92.60;;;;;;5011287;28;20029;-78
2023/09/11 04:34:38;;;;;;;6.30;4.55;;;22.70;92.60;;;;;;5011073;28;20029;-78
2023/09/11 04:37:04;;;;;;;6.10;4.70;;;22.60;92.60;;;;;;5012554;28;20068;-78
2023/09/11 04:39:29;;;;;;;5.72;4.20;;;22.60;92.70;;;;;;5012364;28;20064;-78
2023/09/11 04:41:55;;;;;;;5.93;4.35;;;22.60;92.90;;;;;;5011124;28;20431;-78
2023/09/11 04:44:21;;;;;;;6.32;4.57;;;22.60;92.60;;;;;;5012402;28;20034;-77
2023/09/11 04:46:46;;;;;;;5.65;4.30;;;22.60;92.60;;;;;;5012641;28;20034;-79
2023/09/11 04:49:12;;;;;;;5.53;4.28;;;22.70;92.60;;;;;;5013842;28;20026;-78
2023/09/11 04:51:37;;;;;;;5.90;4.30;;;22.60;92.50;;;;;;5011057;28;20116;-78
2023/09/11 04:54:03;;;;;;;6.20;4.50;;;22.70;92.50;;;;;;5010994;28;20026;-78
2023/09/11 04:56:28;;;;;;;5.70;4.43;;;22.70;92.50;;;;;;5010969;28;20497;-78
2023/09/11 04:58:54;;;;;;;5.15;4.03;;;22.70;92.50;;;;;;5008791;28;20053;-77
2023/09/11 05:01:19;;;;;;;6.18;4.40;;;22.70;92.40;;;;;;5007623;28;20049;-78
2023/09/11 05:03:45;;;;;;;5.70;4.30;;;22.60;92.50;;;;;;5008834;28;20341;-78
2023/09/11 05:06:10;;;;;;;6.07;4.40;;;22.60;92.50;;;;;;5011090;28;20018;-78
2023/09/11 05:08:36;;;;;;;6.00;4.25;;;22.60;92.50;;;;;;5011940;28;20034;-78
2023/09/11 05:11:02;;;;;;;5.53;4.20;;;22.60;92.60;;;;;;5011050;28;20030;-78
2023/09/11 05:13:27;;;;;;;6.30;4.60;;;22.60;92.60;;;;;;5001805;28;20029;-78
2023/09/11 05:15:53;;;;;;;6.40;4.45;;;22.60;92.60;;;;;;5007151;28;20429;-78
2023/09/11 05:18:18;;;;;;;6.43;4.65;;;22.60;92.60;;;;;;5003940;28;20402;-78
2023/09/11 05:20:44;;;;;;;6.15;4.70;;;22.60;92.60;;;;;;5011863;28;20026;-78
2023/09/11 05:23:10;;;;;;;5.95;4.43;;;22.60;92.60;;;;;;5012294;28;20022;-78
2023/09/11 05:25:36;;;;;;;7.45;4.90;;;22.60;92.60;;;;;;5010862;28;20030;-77
2023/09/11 05:28:02;;;;;;;5.70;4.22;;;22.60;92.60;;;;;;5010771;28;20410;-76
2023/09/11 05:30:27;;;;;;;6.10;4.63;;;22.60;92.60;;;;;;5010848;28;20030;-78
2023/09/11 05:32:53;;;;;;;5.80;4.40;;;22.60;92.60;;;;;;5011960;28;20109;-77
2023/09/11 05:35:20;;;;;;;5.80;4.50;;;22.60;92.60;;;;;;5011406;28;20080;-78
2023/09/11 05:37:45;;;;;;;5.75;4.25;;;22.60;92.50;;;;;;5012711;28;20029;-78
2023/09/11 05:40:11;;;;;;;5.90;4.50;;;22.60;92.50;;;;;;5014317;28;20508;-78
2023/09/11 05:42:36;;;;;;;6.00;4.50;;;22.70;92.50;;;;;;5014444;28;20026;-78
2023/09/11 05:45:02;;;;;;;6.18;4.60;;;22.70;92.40;;;;;;5013196;28;20121;-78
2023/09/11 05:47:28;;;;;;;5.57;4.28;;;22.70;92.40;;;;;;5013374;28;20030;-78
2023/09/11 05:49:59;;;;;;;6.55;4.82;;;22.70;92.30;;;;;;5014057;28;20080;-77
2023/09/11 05:52:24;;;;;;;6.00;4.38;;;22.70;92.30;;;;;;5013151;28;20025;-78
2023/09/11 05:54:50;;;;;;;5.93;4.35;;;22.70;92.30;;;;;;5012958;28;20033;-78
2023/09/11 05:57:15;;;;;;;6.10;4.70;;;22.70;92.30;;;;;;5013179;28;20486;-78
2023/09/11 05:59:41;;;;;;;5.90;4.30;;;22.70;92.30;;;;;;5014048;28;20117;-77
2023/09/11 06:02:06;;;;;;;5.88;4.25;;;22.70;92.30;;;;;;5014401;28;20048;-77
2023/09/11 06:04:32;;;;;;;6.63;4.60;;;22.70;92.30;;;;;;5014332;28;20168;-78
2023/09/11 06:06:57;;;;;;;5.82;4.63;;;22.70;92.30;;;;;;5014219;28;20026;-78
2023/09/11 06:09:23;;;;;;;6.00;4.32;;;22.70;92.20;;;;;;5014014;28;20031;-78
2023/09/11 06:11:48;;;;;;;6.07;4.60;;;22.70;92.20;;;;;;5013058;28;20243;-78
2023/09/11 06:14:14;;;;;;;6.40;4.18;;;22.80;92.20;;;;;;5014082;28;20026;-78
2023/09/11 06:16:39;;;;;;;6.55;4.88;;;22.80;92.20;;;;;;5012910;28;20402;-77
2023/09/11 06:19:05;;;;;;;6.10;4.72;;;22.80;92.10;;;;;;5013527;28;20029;-78
2023/09/11 06:21:30;;;;;;;6.63;5.05;;;22.80;92.10;;;;;;5014282;28;20022;-78
2023/09/11 06:23:56;;;;;;;6.72;4.32;;;22.80;92.10;;;;;;5013992;28;20113;-77
2023/09/11 06:26:21;;;;;;;6.88;4.60;;;22.80;92.00;;;;;;5013936;28;20037;-77
2023/09/11 06:28:47;;;;;;;5.88;4.35;;;22.80;92.10;;;;;;5013468;28;20434;-78
2023/09/11 06:31:13;;;;;;;5.75;4.70;;;22.90;92.00;;;;;;5014110;28;20030;-78
2023/09/11 06:33:38;;;;;;;6.05;4.45;;;22.90;91.90;;;;;;5012750;28;20429;-77
2023/09/11 06:36:04;;;;;;;6.10;4.47;;;23.00;91.80;;;;;;4979108;28;1060768;-78
2023/09/11 06:38:29;;;;;;;5.63;4.15;;;23.00;91.70;;;;;;5013180;28;20026;-78
2023/09/11 06:40:55;;;;;;;6.00;4.50;;;23.00;91.60;;;;;;5014369;28;20032;-78
2023/09/11 06:43:20;;;;;;;5.85;4.50;;;23.00;91.60;;;;;;5014342;28;20052;-78
2023/09/11 06:45:51;;;;;;;6.03;4.13;;;23.00;91.60;;;;;;5014210;28;20030;-78
2023/09/11 06:48:16;;;;;;;5.97;4.32;;;23.00;91.60;;;;;;5012805;28;20068;-78
2023/09/11 06:50:42;;;;;;;5.80;4.35;;;23.00;91.60;;;;;;5014312;28;20022;-78
2023/09/11 06:53:09;;;;;;;5.85;4.50;;;23.00;91.60;;;;;;5014399;28;20482;-78
2023/09/11 06:55:34;;;;;;;5.82;4.10;;;23.00;91.60;;;;;;5014029;28;20033;-78
2023/09/11 06:58:01;;;;;;;5.60;4.43;;;23.00;91.60;;;;;;5014279;28;20029;-79
2023/09/11 07:00:27;;;;;;;6.20;4.60;;;23.10;91.50;;;;;;5014089;28;20097;-78
2023/09/11 07:02:54;;;;;;;5.72;4.55;;;23.10;91.50;;;;;;5012821;28;20503;-78
2023/09/11 07:05:20;;;;;;;5.50;4.03;;;23.10;91.50;;;;;;5012691;28;20030;-79
2023/09/11 07:07:46;;;;;;;5.93;4.55;;;23.10;91.50;;;;;;5013895;28;20030;-78
2023/09/11 07:10:15;;;;;;;6.35;4.60;;;23.10;91.50;;;;;;5013698;28;20089;-78
2023/09/11 07:12:44;;;;;;;5.30;4.30;;;23.20;91.50;;;;;;5013672;28;20076;-77
2023/09/11 07:15:09;;;;;;;6.03;4.40;;;23.20;91.50;;;;;;5013662;28;20506;-78
2023/09/11 07:17:35;;;;;;;5.85;4.40;;;23.20;91.40;;;;;;5013815;28;20026;-78
2023/09/11 07:20:04;;;;;;;6.10;4.60;;;23.20;91.40;;;;;;5013241;28;20116;-78
2023/09/11 07:22:30;;;;;;;7.05;4.90;;;23.20;91.30;;;;;;5012436;28;20026;-78
2023/09/11 07:24:56;;;;;;;6.38;4.88;;;23.30;91.30;;;;;;5012280;28;20050;-78
2023/09/11 07:27:22;;;;;;;6.15;4.55;;;23.30;91.20;;;;;;5013718;28;20104;-78
2023/09/11 07:29:49;;;;;;;6.10;4.70;;;23.30;91.10;;;;;;5012045;28;20049;-78
2023/09/11 07:32:15;;;;;;;5.90;4.50;;;23.40;91.10;;;;;;5013537;28;20437;-77
2023/09/11 07:34:40;;;;;;;6.22;4.85;;;23.40;91.00;;;;;;5012134;28;20033;-78
2023/09/11 07:37:06;;;;;;;6.57;4.80;;;23.40;91.00;;;;;;5013419;28;20018;-78
2023/09/11 07:39:31;;;;;;;6.80;4.95;;;23.40;90.90;;;;;;5013232;28;20029;-78
2023/09/11 07:41:58;;;;;;;6.90;5.32;;;23.40;90.90;;;;;;5012011;28;20022;-78
2023/09/11 07:44:23;;;;;;;7.03;5.18;;;23.40;90.90;;;;;;5013401;28;20022;-78
2023/09/11 07:46:48;;;;;;;6.70;5.05;;;23.40;90.90;;;;;;5013214;28;20449;-77
2023/09/11 07:49:14;;;;;;;6.93;5.30;;;23.50;90.90;;;;;;5011831;28;20037;-78
2023/09/11 07:51:40;;;;;;;7.03;5.45;;;23.50;91.00;;;;;;5011929;28;20030;-78
2023/09/11 07:54:06;;;;;;;7.10;5.55;;;23.50;90.90;;;;;;5012233;28;20406;-78
2023/09/11 07:56:33;;;;;;;6.90;5.47;;;23.50;90.90;;;;;;5013198;28;20037;-78
2023/09/11 07:59:00;;;;;;;6.75;5.38;;;23.50;90.90;;;;;;5012843;28;20032;-78
2023/09/11 08:01:25;;;;;;;6.43;5.40;;;23.50;90.90;;;;;;5012457;28;20153;-78
2023/09/11 08:03:51;;;;;;;8.05;5.53;;;23.50;90.80;;;;;;5013115;28;20101;-78
2023/09/11 08:06:17;;;;;;;6.63;5.28;;;23.60;90.80;;;;;;5011900;28;20021;-78
2023/09/11 08:08:42;;;;;;;6.50;5.28;;;23.60;90.80;;;;;;5011606;28;20029;-77
2023/09/11 08:11:27;;;;;;;6.22;4.95;;;23.60;90.80;;;;;;5013095;28;20482;-78
2023/09/11 08:13:53;;;;;;;7.28;5.45;;;23.70;90.80;;;;;;5013099;28;20022;-78
2023/09/11 08:16:19;;;;;;;7.20;5.68;;;23.70;90.80;;;;;;5012823;28;20014;-78
2023/09/11 08:18:44;;;;;;;6.85;5.50;;;23.70;90.70;;;;;;5011198;28;20101;-78
2023/09/11 08:21:11;;;;;;;6.85;5.20;;;23.70;90.60;;;;;;5012797;28;20387;-78
2023/09/11 08:23:36;;;;;;;6.63;5.20;;;23.80;90.60;;;;;;5012900;28;20065;-78
2023/09/11 08:26:02;;;;;;;6.63;5.40;;;23.80;90.60;;;;;;5012611;28;20022;-78
2023/09/11 08:28:28;;;;;;;7.15;5.55;;;23.80;90.50;;;;;;5012458;28;20025;-78
2023/09/11 08:30:54;;;;;;;6.47;4.90;;;23.80;90.40;;;;;;5012693;28;20030;-78
2023/09/11 08:33:21;;;;;;;6.85;5.43;;;23.80;90.50;;;;;;5011528;28;20044;-78
2023/09/11 08:35:48;;;;;;;6.60;5.22;;;23.80;90.50;;;;;;5012405;28;20048;-78
2023/09/11 08:38:14;;;;;;;6.65;5.25;;;23.80;90.50;;;;;;5012474;28;20052;-78
2023/09/11 08:40:42;;;;;;;6.03;4.80;;;23.90;90.50;;;;;;5012540;28;20516;-78
2023/09/11 08:43:07;;;;;;;7.30;5.00;;;23.90;90.50;;;;;;5012896;28;20041;-78
2023/09/11 08:45:33;;;;;;;6.72;5.20;;;23.80;90.40;;;;;;5012645;28;20093;-78
2023/09/11 08:47:59;;;;;;;6.38;4.93;;;23.90;90.40;;;;;;5012548;28;20033;-78
2023/09/11 08:50:31;;;;;;;6.50;4.93;;;23.90;90.40;;;;;;5012348;28;20033;-78
2023/09/11 08:52:59;;;;;;;6.57;4.78;;;23.90;90.40;;;;;;5012520;28;20034;-78
2023/09/11 08:55:27;;;;;;;6.75;5.18;;;23.80;90.40;;;;;;5011125;28;20033;-78
2023/09/11 08:57:54;;;;;;;6.90;5.25;;;23.90;90.40;;;;;;5012264;28;20014;-78
2023/09/11 09:00:20;;;;;;;6.57;5.03;;;23.90;90.40;;;;;;5012321;28;20051;-78
2023/09/11 09:02:46;;;;;;;6.22;4.70;;;23.90;90.40;;;;;;5011306;28;20116;-78
2023/09/11 09:05:12;;;;;;;6.53;4.78;;;23.90;90.40;;;;;;5012527;28;20029;-77
2023/09/11 09:07:38;;;;;;;6.18;4.80;;;23.90;90.50;;;;;;5011221;28;20100;-78
2023/09/11 09:10:05;;;;;;;8.02;5.20;;;23.90;90.70;;;;;;5012128;28;20022;-77
2023/09/11 09:12:31;;;;;;;7.55;5.20;;;24.00;90.50;;;;;;5013629;28;20025;-78
2023/09/11 09:14:57;;;;;;;15.13;6.82;;;24.00;90.40;;;;;;5016551;28;20108;-78
2023/09/11 09:17:23;;;;;;;10.90;5.60;;;23.90;89.30;;;;;;5016584;28;20054;-78
2023/09/11 09:19:48;;;;;;;19.80;6.70;;;23.90;89.40;;;;;;5015653;28;20498;-78
2023/09/11 09:22:14;;;;;;;16.45;7.05;;;23.90;89.10;;;;;;5016742;28;20085;-78
2023/09/11 09:24:51;;;;;;;17.77;6.97;;;23.80;89.10;;;;;;5016026;28;20029;-78
2023/09/11 09:27:18;;;;;;;11.02;6.15;;;23.90;89.50;;;;;;5016500;28;20079;-78
2023/09/11 09:29:44;;;;;;;11.27;6.30;;;23.90;89.50;;;;;;5015665;28;20022;-78
2023/09/11 09:32:10;;;;;;;13.95;6.50;;;23.90;89.50;;;;;;5014984;28;20512;-78
2023/09/11 09:34:37;;;;;;;14.80;6.50;;;23.90;90.10;;;;;;5015844;28;20057;-77
2023/09/11 09:37:03;;;;;;;19.70;6.70;;;24.00;89.80;;;;;;5016118;28;20505;-78
2023/09/11 09:39:29;;;;;;;13.40;6.38;;;23.90;89.80;;;;;;5015946;28;20026;-78
2023/09/11 09:42:00;;;;;;;11.35;6.25;;;24.00;89.80;;;;;;5014871;28;20121;-78
2023/09/11 09:44:34;;;;;;;14.07;6.37;;;24.00;89.80;;;;;;5016075;28;20105;-78
2023/09/11 09:47:06;;;;;;;10.18;5.95;;;24.00;90.00;;;;;;5016136;28;20034;-78
2023/09/11 09:49:50;;;;;;;11.27;6.40;;;24.00;90.00;;;;;;5014145;28;20385;-78
2023/09/11 09:52:18;;;;;;;12.05;6.15;;;24.00;90.00;;;;;;5015531;28;20076;-77
2023/09/11 09:54:49;;;;;;;10.43;5.82;;;24.00;90.00;;;;;;5013662;28;20026;-77
2023/09/11 09:57:18;;;;;;;9.77;6.38;;;24.10;90.00;;;;;;5014006;28;20052;-78
2023/09/11 09:59:48;;;;;;;9.60;6.38;;;24.10;90.00;;;;;;5014851;28;20025;-77
2023/09/11 10:02:14;;;;;;;9.13;5.90;;;24.10;90.00;;;;;;5015307;28;20072;-77
2023/09/11 10:04:40;;;;;;;10.55;5.47;;;24.10;90.00;;;;;;5013809;28;20036;-77
2023/09/11 10:07:06;;;;;;;8.95;6.10;;;24.10;89.90;;;;;;5015027;28;20487;-78
2023/09/11 10:09:33;;;;;;;11.38;5.90;;;24.10;90.00;;;;;;5014818;28;20026;-77
2023/09/11 10:12:04;;;;;;;9.18;6.10;;;24.10;90.00;;;;;;5014757;28;20441;-78
2023/09/11 10:14:30;;;;;;;9.13;5.60;;;24.10;90.00;;;;;;5013576;28;20072;-78
2023/09/11 10:16:58;;;;;;;8.55;5.32;;;24.10;90.10;;;;;;5014768;28;20038;-77
2023/09/11 10:19:27;;;;;;;7.95;5.63;;;24.10;90.10;;;;;;5012860;28;20071;-77
2023/09/11 10:21:52;;;;;;;9.43;5.75;;;24.10;90.20;;;;;;5014703;28;20021;-77
2023/09/11 10:24:18;;;;;;;7.82;5.28;;;24.10;90.20;;;;;;5014206;28;20080;-77
2023/09/11 10:26:57;;;;;;;8.15;5.82;;;24.10;90.20;;;;;;5014528;28;20026;-77
2023/09/11 10:29:35;;;;;;;8.05;5.68;;;24.10;90.20;;;;;;5014490;28;20030;-77
2023/09/11 10:32:18;;;;;;;9.25;5.38;;;24.10;90.20;;;;;;5014444;28;20030;-77
2023/09/11 10:34:45;;;;;;;8.15;5.63;;;24.10;90.20;;;;;;5014397;28;20026;-77
2023/09/11 10:37:10;;;;;;;8.45;6.10;;;24.10;90.20;;;;;;5014567;28;20073;-77
2023/09/11 10:39:37;;;;;;;9.10;5.93;;;24.10;90.20;;;;;;5012969;28;20056;-77
2023/09/11 10:42:03;;;;;;;8.35;5.20;;;24.10;90.20;;;;;;5013169;28;20026;-77
2023/09/11 10:44:33;;;;;;;7.97;5.22;;;24.10;90.20;;;;;;5014215;28;20030;-77
2023/09/11 10:47:02;;;;;;;7.07;5.50;;;24.10;90.20;;;;;;5014149;28;20045;-77
2023/09/11 10:49:34;;;;;;;7.38;5.40;;;24.20;90.20;;;;;;5013985;28;20049;-77
2023/09/11 10:52:02;;;;;;;8.43;5.78;;;24.20;90.10;;;;;;5014115;28;20022;-77
2023/09/11 10:54:28;;;;;;;8.15;5.53;;;24.20;90.10;;;;;;5013978;28;20520;-77
2023/09/11 10:56:55;;;;;;;7.57;5.50;;;24.20;90.10;;;;;;5013976;28;20117;-77
2023/09/11 10:59:24;;;;;;;7.20;5.10;;;24.20;90.10;;;;;;5013816;28;20021;-77
2023/09/11 11:01:50;;;;;;;7.20;5.18;;;24.20;90.10;;;;;;5012864;28;20296;-77
2023/09/11 11:04:17;;;;;;;8.38;5.20;;;24.20;90.20;;;;;;5013939;28;20053;-77
2023/09/11 11:06:46;;;;;;;8.20;5.32;;;24.10;90.20;;;;;;5013857;28;20030;-76
2023/09/11 11:09:32;;;;;;;7.75;5.00;;;24.10;90.30;;;;;;5012530;28;20030;-77
2023/09/11 11:12:10;;;;;;;10.60;5.45;;;24.10;90.50;;;;;;5014003;28;20022;-77
2023/09/11 11:14:36;;;;;;;7.80;5.32;;;24.10;90.30;;;;;;5013679;28;20519;-77
2023/09/11 11:17:12;;;;;;;8.55;5.88;;;24.10;90.30;;;;;;5013680;28;20029;-77
2023/09/11 11:19:45;;;;;;;7.20;4.78;;;24.10;90.40;;;;;;5012984;28;20025;-77
2023/09/11 11:22:32;;;;;;;7.22;5.15;;;24.10;90.40;;;;;;5012403;28;20076;-77
2023/09/11 11:24:59;;;;;;;6.50;4.93;;;24.10;90.40;;;;;;5013385;28;20030;-77
2023/09/11 11:27:26;;;;;;;8.27;5.15;;;24.00;90.40;;;;;;5013616;28;20037;-77
2023/09/11 11:29:55;;;;;;;9.27;5.35;;;24.10;90.50;;;;;;5013182;28;20034;-77
2023/09/11 11:32:21;;;;;;;7.78;5.15;;;24.10;90.40;;;;;;5013451;28;20033;-77
2023/09/11 11:34:50;;;;;;;7.38;5.07;;;24.10;90.40;;;;;;5012206;28;20491;-77
2023/09/11 11:37:20;;;;;;;7.50;5.20;;;24.10;90.40;;;;;;5013432;28;20049;-77
2023/09/11 11:39:46;;;;;;;7.40;5.65;;;24.10;90.40;;;;;;5011754;28;20080;-79
2023/09/11 11:42:13;;;;;;;7.85;4.85;;;24.10;90.30;;;;;;5012431;28;20732;-77
2023/09/11 11:44:39;;;;;;;6.55;4.90;;;24.10;90.30;;;;;;5012040;28;20029;-77
2023/09/11 11:47:06;;;;;;;8.45;5.45;;;24.10;90.30;;;;;;5011815;28;20406;-77
2023/09/11 11:49:32;;;;;;;6.55;4.80;;;24.10;90.20;;;;;;5011626;28;20026;-77
2023/09/11 11:52:01;;;;;;;7.03;4.70;;;24.10;90.30;;;;;;5011706;28;20091;-77
2023/09/11 11:54:29;;;;;;;7.75;4.95;;;24.10;90.30;;;;;;5011563;28;20107;-77
2023/09/11 11:56:56;;;;;;;7.47;4.93;;;24.10;90.40;;;;;;5011813;28;20022;-77
2023/09/11 11:59:28;;;;;;;7.28;5.07;;;24.10;90.40;;;;;;5011513;28;20112;-77
2023/09/11 12:01:53;;;;;;;6.15;4.70;;;24.00;90.40;;;;;;5011656;28;20018;-77
2023/09/11 12:04:19;;;;;;;6.45;4.60;;;24.10;90.40;;;;;;5012787;28;20494;-77
2023/09/11 12:06:44;;;;;;;7.80;5.13;;;24.10;90.50;;;;;;5012702;28;20030;-77
2023/09/11 12:09:10;;;;;;;7.43;4.68;;;24.10;90.50;;;;;;5011389;28;20025;-77
2023/09/11 12:11:38;;;;;;;6.90;4.60;;;24.00;90.40;;;;;;5011467;28;20034;-77
2023/09/11 12:14:03;;;;;;;7.03;4.90;;;24.00;90.50;;;;;;5011422;28;20091;-77
2023/09/11 12:16:32;;;;;;;7.28;4.80;;;24.00;90.50;;;;;;5012543;28;20018;-77
2023/09/11 12:18:58;;;;;;;7.10;4.85;;;24.00;90.50;;;;;;5011882;28;20022;-77
2023/09/11 12:21:23;;;;;;;6.07;4.53;;;24.00;90.50;;;;;;5012761;28;20030;-77
2023/09/11 12:23:49;;;;;;;6.50;4.68;;;24.00;90.50;;;;;;5012463;28;20068;-77
2023/09/11 12:26:14;;;;;;;6.22;4.60;;;24.00;90.50;;;;;;5012469;28;20029;-77
2023/09/11 12:28:40;;;;;;;6.45;4.60;;;24.00;90.50;;;;;;5012227;28;20437;-77
2023/09/11 12:31:06;;;;;;;6.43;4.93;;;24.00;90.70;;;;;;5012421;28;20028;-77
2023/09/11 12:33:34;;;;;;;7.63;4.78;;;24.00;90.40;;;;;;5012389;28;20029;-77
2023/09/11 12:35:59;;;;;;;7.10;4.78;;;24.00;90.40;;;;;;5038269;22;20064;-78
2023/09/11 12:38:26;;;;;;;6.10;4.53;;;24.00;90.40;;;;;;5014335;28;20052;-77
2023/09/11 12:40:52;;;;;;;7.40;4.72;;;24.00;90.50;;;;;;5032590;28;20477;-78
2023/09/11 12:43:19;;;;;;;7.80;4.72;;;24.00;90.40;;;;;;5014921;28;20025;-78